Time;durP1;ratioP1;P1;durP2;ratioP2;P2;SDS_P1;SDS_P2;PMS_P1;PMS_P2;Temp;Humidity;BMP_temperature;BMP_pressure;BME280_temperature;BME280_humidity;BME280_pressure;Samples;Min_cycle;Max_cycle;Signal;HPM_P1;HPM_P2
2023/03/19 00:00:52;;;;;;;6.07;3.90;;;12.20;92.00;;;;;;4955944;29;20445;-76
2023/03/19 00:03:20;;;;;;;5.97;3.07;;;12.30;92.10;;;;;;4955830;29;20420;-76
2023/03/19 00:06:02;;;;;;;5.30;3.57;;;12.30;92.10;;;;;;4940501;29;20204;-76
2023/03/19 00:08:29;;;;;;;4.73;3.17;;;12.30;92.20;;;;;;4940637;29;20424;-76
2023/03/19 00:10:57;;;;;;;5.23;3.40;;;12.20;92.20;;;;;;4954068;29;20522;-76
2023/03/19 00:13:25;;;;;;;6.57;3.20;;;12.30;92.40;;;;;;4956704;29;20476;-77
2023/03/19 00:15:52;;;;;;;3.37;2.30;;;12.20;92.50;;;;;;4955656;29;20504;-76
2023/03/19 00:18:48;;;;;;;2.77;2.00;;;12.20;92.70;;;;;;4957572;29;20506;-76
2023/03/19 00:21:14;;;;;;;4.50;1.93;;;12.20;92.90;;;;;;4958689;29;20484;-77
2023/03/19 00:23:44;;;;;;;8.13;3.13;;;12.10;92.70;;;;;;4913091;29;20410;-76
2023/03/19 00:26:14;;;;;;;7.30;3.33;;;12.10;93.10;;;;;;4958954;29;20445;-76
2023/03/19 00:28:42;;;;;;;4.67;2.87;;;12.10;93.20;;;;;;4960333;29;20432;-77
2023/03/19 00:31:15;;;;;;;3.73;2.60;;;12.00;93.40;;;;;;4957425;29;20439;-76
2023/03/19 00:33:45;;;;;;;4.40;3.03;;;12.00;93.70;;;;;;4958902;29;20426;-76
2023/03/19 00:36:12;;;;;;;6.67;3.33;;;11.90;94.00;;;;;;4921523;29;20428;-77
2023/03/19 00:38:40;;;;;;;7.17;3.57;;;11.80;94.40;;;;;;4938589;29;20414;-76
2023/03/19 00:41:06;;;;;;;6.90;3.87;;;11.70;94.70;;;;;;4922110;29;20500;-76
2023/03/19 00:43:32;;;;;;;8.17;3.80;;;11.70;95.00;;;;;;4946124;29;20425;-76
2023/03/19 00:45:58;;;;;;;4.20;3.13;;;11.60;95.40;;;;;;4953444;29;20492;-74
2023/03/19 00:48:26;;;;;;;3.83;2.83;;;11.50;95.80;;;;;;4954766;29;20417;-75
2023/03/19 00:50:54;;;;;;;6.07;3.20;;;11.40;96.20;;;;;;4955832;29;20509;-76
2023/03/19 00:53:20;;;;;;;4.67;3.73;;;11.40;96.50;;;;;;4956396;29;20409;-76
2023/03/19 00:55:46;;;;;;;5.37;3.87;;;11.30;96.70;;;;;;4955006;29;20416;-76
2023/03/19 00:58:12;;;;;;;6.60;3.70;;;11.20;96.90;;;;;;4957240;29;20390;-74
2023/03/19 01:00:39;;;;;;;5.73;3.00;;;11.20;97.00;;;;;;4934536;29;20546;-75
2023/03/19 01:03:05;;;;;;;7.57;3.37;;;11.20;97.10;;;;;;4922846;29;20419;-78
2023/03/19 01:05:36;;;;;;;4.67;2.70;;;11.10;97.30;;;;;;4956835;29;20458;-75
2023/03/19 01:08:08;;;;;;;4.00;2.20;;;11.00;97.50;;;;;;4956419;29;20406;-76
2023/03/19 01:10:41;;;;;;;5.17;2.90;;;10.90;97.70;;;;;;5107611;23;20493;-78
2023/03/19 01:13:07;;;;;;;4.30;2.30;;;10.90;98.00;;;;;;4920926;29;20383;-76
2023/03/19 01:15:43;;;;;;;3.47;2.60;;;10.80;98.10;;;;;;4935702;29;20434;-76
2023/03/19 01:18:10;;;;;;;3.47;2.43;;;10.80;98.40;;;;;;4938365;29;20186;-76
2023/03/19 01:20:39;;;;;;;3.90;2.07;;;10.70;98.40;;;;;;4921990;29;20538;-77
2023/03/19 01:23:06;;;;;;;3.73;3.20;;;10.60;98.70;;;;;;4920523;29;20407;-74
2023/03/19 01:25:33;;;;;;;5.97;3.53;;;10.60;98.90;;;;;;4917484;29;20513;-77
2023/03/19 01:28:06;;;;;;;7.03;3.37;;;10.60;99.20;;;;;;4918933;29;20407;-75
2023/03/19 01:30:34;;;;;;;5.63;3.70;;;10.60;99.40;;;;;;4932930;29;20442;-74
2023/03/19 01:33:08;;;;;;;4.53;2.83;;;10.60;99.50;;;;;;4935300;29;20414;-75
2023/03/19 01:35:54;;;;;;;5.97;2.60;;;10.50;99.80;;;;;;4934422;29;20415;-75
2023/03/19 01:38:24;;;;;;;4.43;2.47;;;10.50;99.90;;;;;;4933320;29;20426;-74
2023/03/19 01:40:51;;;;;;;6.57;3.43;;;10.50;99.90;;;;;;4934932;29;20460;-75
2023/03/19 01:43:18;;;;;;;4.53;2.80;;;10.50;99.90;;;;;;4931283;29;20747;-74
2023/03/19 01:45:55;;;;;;;3.73;2.20;;;10.40;99.90;;;;;;4918917;29;20502;-77
2023/03/19 01:48:52;;;;;;;10.30;4.70;;;10.40;99.90;;;;;;4921029;29;20471;-73
2023/03/19 01:51:24;;;;;;;5.80;4.83;;;10.40;99.90;;;;;;4916765;29;20807;-76
2023/03/19 01:54:20;;;;;;;7.57;3.90;;;10.50;99.90;;;;;;4932699;29;20758;-73
2023/03/19 01:57:00;;;;;;;7.27;3.97;;;10.60;99.90;;;;;;4934453;29;20417;-75
2023/03/19 01:59:52;;;;;;;8.13;4.07;;;10.60;99.90;;;;;;4941405;29;20439;-76
2023/03/19 02:02:24;;;;;;;6.77;4.60;;;10.70;99.90;;;;;;4948987;29;20487;-75
2023/03/19 02:04:57;;;;;;;6.83;3.03;;;10.80;99.90;;;;;;4932980;29;20463;-76
2023/03/19 02:07:24;;;;;;;5.33;3.70;;;10.80;99.90;;;;;;4934207;29;20450;-74
2023/03/19 02:09:49;;;;;;;6.73;3.87;;;10.70;99.90;;;;;;4935553;29;20739;-75
2023/03/19 02:12:16;;;;;;;9.17;4.00;;;10.80;99.90;;;;;;4917672;29;20423;-75
2023/03/19 02:14:42;;;;;;;7.07;4.10;;;10.80;99.90;;;;;;4932888;29;20426;-75
2023/03/19 02:17:11;;;;;;;6.63;3.30;;;10.80;99.90;;;;;;4915450;29;20431;-74
2023/03/19 02:19:59;;;;;;;8.00;4.80;;;10.80;99.90;;;;;;4931824;29;20446;-74
2023/03/19 02:22:28;;;;;;;6.43;3.57;;;10.90;99.90;;;;;;4899842;29;20186;-74
2023/03/19 02:25:06;;;;;;;5.33;3.20;;;10.90;99.90;;;;;;4913440;29;20473;-75
2023/03/19 02:27:33;;;;;;;5.77;3.40;;;10.90;99.90;;;;;;4902214;29;20437;-74
2023/03/19 02:30:00;;;;;;;4.90;3.47;;;10.90;99.90;;;;;;4915345;29;20551;-74
2023/03/19 02:32:26;;;;;;;5.20;2.90;;;11.00;99.90;;;;;;4914864;29;20411;-75
2023/03/19 02:34:52;;;;;;;5.30;2.87;;;11.00;99.90;;;;;;4929191;29;20446;-77
2023/03/19 02:37:27;;;;;;;3.90;2.83;;;11.00;99.90;;;;;;4931428;29;20402;-74
2023/03/19 02:40:00;;;;;;;6.67;3.00;;;11.00;99.90;;;;;;4913772;29;20210;-74
2023/03/19 02:42:29;;;;;;;6.93;3.50;;;11.00;99.90;;;;;;4913180;29;20418;-76
2023/03/19 02:44:56;;;;;;;10.27;3.93;;;11.10;99.90;;;;;;4884498;29;20467;-75
2023/03/19 02:47:23;;;;;;;4.17;2.60;;;11.10;99.90;;;;;;4898333;29;20414;-75
2023/03/19 02:49:49;;;;;;;3.50;2.33;;;11.10;99.90;;;;;;4913429;29;20438;-76
2023/03/19 02:52:15;;;;;;;2.77;2.10;;;11.10;99.90;;;;;;4914391;29;20471;-73
2023/03/19 02:54:41;;;;;;;3.50;2.50;;;11.10;99.90;;;;;;4910995;29;20452;-75
2023/03/19 02:57:07;;;;;;;3.93;2.20;;;11.10;99.90;;;;;;4896020;29;20421;-74
2023/03/19 02:59:33;;;;;;;3.63;2.37;;;11.10;99.90;;;;;;4908668;29;20297;-77
2023/03/19 03:02:01;;;;;;;3.27;2.20;;;11.10;99.90;;;;;;4913516;29;20526;-75
2023/03/19 03:04:28;;;;;;;4.37;2.90;;;11.10;99.90;;;;;;4913096;29;20484;-74
2023/03/19 03:06:54;;;;;;;4.50;2.70;;;11.20;99.90;;;;;;4927577;29;20211;-72
2023/03/19 03:09:20;;;;;;;3.90;2.73;;;11.10;99.90;;;;;;4896702;29;20450;-74
2023/03/19 03:11:46;;;;;;;4.70;2.60;;;11.20;99.90;;;;;;4896472;29;20194;-74
2023/03/19 03:14:12;;;;;;;4.60;2.00;;;11.20;99.90;;;;;;4924955;29;20492;-76
2023/03/19 03:16:40;;;;;;;5.80;3.60;;;11.20;99.90;;;;;;4910594;29;20498;-75
2023/03/19 03:19:06;;;;;;;4.47;2.80;;;11.20;99.90;;;;;;4944466;29;20237;-73
2023/03/19 03:21:32;;;;;;;4.80;2.80;;;11.20;99.90;;;;;;4925424;29;20474;-75
2023/03/19 03:23:58;;;;;;;3.90;3.00;;;11.20;99.90;;;;;;4921354;29;20189;-73
2023/03/19 03:26:24;;;;;;;9.03;3.67;;;11.20;99.90;;;;;;4924505;29;20466;-73
2023/03/19 03:28:50;;;;;;;4.57;3.00;;;11.20;99.90;;;;;;4919391;29;20289;-74
2023/03/19 03:31:16;;;;;;;4.73;3.00;;;11.20;99.90;;;;;;4917388;29;20784;-73
2023/03/19 03:33:42;;;;;;;3.90;2.43;;;11.20;99.90;;;;;;4919653;29;20526;-73
2023/03/19 03:36:08;;;;;;;7.37;3.57;;;11.20;99.90;;;;;;4918197;29;20221;-73
2023/03/19 03:38:33;;;;;;;3.67;2.90;;;11.10;99.90;;;;;;4919032;29;20558;-72
2023/03/19 03:40:59;;;;;;;2.93;2.10;;;11.10;99.90;;;;;;4916084;29;20242;-74
2023/03/19 03:43:26;;;;;;;4.40;2.43;;;11.10;99.90;;;;;;4917288;29;20193;-73
2023/03/19 03:45:52;;;;;;;3.53;2.67;;;11.20;99.90;;;;;;4917041;29;20825;-74
2023/03/19 03:48:18;;;;;;;3.73;3.13;;;11.10;99.90;;;;;;4917441;29;20418;-72
2023/03/19 03:50:44;;;;;;;5.60;2.60;;;11.10;99.90;;;;;;4917317;29;20489;-74
2023/03/19 03:53:14;;;;;;;6.00;3.77;;;11.10;99.90;;;;;;4917464;29;20182;-73
2023/03/19 03:55:41;;;;;;;3.77;3.17;;;11.10;99.90;;;;;;4929925;29;20437;-73
2023/03/19 03:58:07;;;;;;;5.00;3.23;;;11.10;99.90;;;;;;4934495;29;20478;-73
2023/03/19 04:00:33;;;;;;;5.50;2.60;;;11.00;99.90;;;;;;4933531;29;20441;-72
2023/03/19 04:02:59;;;;;;;2.93;2.20;;;11.00;99.90;;;;;;4917649;29;20249;-73
2023/03/19 04:05:25;;;;;;;3.07;2.00;;;11.00;99.90;;;;;;4933122;29;20462;-74
2023/03/19 04:07:52;;;;;;;3.73;1.87;;;10.90;99.90;;;;;;4931445;29;20401;-72
2023/03/19 04:10:19;;;;;;;2.57;1.60;;;10.90;99.90;;;;;;4929489;29;20222;-73
2023/03/19 04:12:46;;;;;;;2.53;1.50;;;10.90;99.90;;;;;;4907650;29;20477;-74
2023/03/19 04:15:12;;;;;;;3.07;1.97;;;10.90;99.90;;;;;;4921019;29;20543;-72
2023/03/19 04:17:40;;;;;;;3.43;2.20;;;10.90;99.90;;;;;;4920975;29;20437;-73
2023/03/19 04:20:07;;;;;;;1.90;1.63;;;10.80;99.90;;;;;;4920468;29;20454;-73
2023/03/19 04:22:32;;;;;;;2.30;1.67;;;10.70;99.90;;;;;;4921881;29;20194;-73
2023/03/19 04:24:58;;;;;;;2.63;1.70;;;10.60;99.90;;;;;;4921470;29;20899;-72
2023/03/19 04:27:25;;;;;;;2.80;1.77;;;10.60;99.90;;;;;;4923360;29;20238;-74
2023/03/19 04:29:51;;;;;;;2.00;1.50;;;10.60;99.90;;;;;;4929943;29;20458;-73
2023/03/19 04:32:18;;;;;;;2.00;1.40;;;10.50;99.90;;;;;;4929644;29;20418;-74
2023/03/19 04:34:43;;;;;;;2.13;1.77;;;10.60;99.90;;;;;;4930094;29;20406;-76
2023/03/19 04:37:09;;;;;;;1.70;1.13;;;10.60;99.90;;;;;;4931452;29;20198;-75
2023/03/19 04:39:43;;;;;;;1.90;1.20;;;10.60;99.90;;;;;;4930033;29;20205;-74
2023/03/19 04:42:10;;;;;;;3.03;2.03;;;10.60;99.90;;;;;;4929652;29;20410;-73
2023/03/19 04:44:43;;;;;;;3.37;1.53;;;10.60;99.90;;;;;;4929164;29;20560;-73
2023/03/19 04:47:10;;;;;;;3.20;1.80;;;10.70;99.90;;;;;;4927933;29;20838;-73
2023/03/19 04:49:47;;;;;;;3.73;1.90;;;10.60;99.90;;;;;;4928016;29;20437;-74
2023/03/19 04:52:14;;;;;;;3.63;1.63;;;10.70;99.90;;;;;;4929439;29;20414;-76
2023/03/19 04:54:40;;;;;;;3.90;2.00;;;10.80;99.90;;;;;;4921902;29;20887;-72
2023/03/19 04:57:07;;;;;;;1.87;1.20;;;10.80;99.90;;;;;;4919666;29;20210;-74
2023/03/19 04:59:36;;;;;;;1.80;1.30;;;10.80;99.90;;;;;;4919952;29;20447;-73
2023/03/19 05:02:02;;;;;;;2.07;1.23;;;10.80;99.90;;;;;;4925965;29;20531;-74
2023/03/19 05:04:29;;;;;;;2.23;1.20;;;10.80;99.90;;;;;;4926482;29;20761;-73
2023/03/19 05:07:00;;;;;;;1.13;0.90;;;10.80;99.90;;;;;;4925765;29;20418;-73
2023/03/19 05:09:26;;;;;;;2.07;1.10;;;10.90;99.90;;;;;;4942017;29;20898;-73
2023/03/19 05:11:52;;;;;;;1.47;1.13;;;10.90;99.90;;;;;;4927451;29;20415;-73
2023/03/19 05:14:20;;;;;;;1.50;1.30;;;10.90;99.90;;;;;;4925964;29;20290;-73
2023/03/19 05:16:57;;;;;;;2.10;1.00;;;10.80;99.90;;;;;;4927989;29;20780;-73
2023/03/19 05:19:25;;;;;;;1.83;1.40;;;10.90;99.90;;;;;;4926860;29;20445;-74
2023/03/19 05:21:51;;;;;;;2.67;1.33;;;10.90;99.90;;;;;;4927825;29;20438;-71
2023/03/19 05:24:22;;;;;;;3.00;1.13;;;10.90;99.90;;;;;;4912981;29;20410;-73
2023/03/19 05:26:49;;;;;;;2.00;1.13;;;10.90;99.90;;;;;;4928427;29;20590;-74
2023/03/19 05:29:33;;;;;;;2.30;1.10;;;10.90;99.90;;;;;;4930133;29;20417;-72
2023/03/19 05:32:16;;;;;;;2.80;1.03;;;10.90;99.90;;;;;;4901424;29;20703;-72
2023/03/19 05:35:03;;;;;;;2.33;1.20;;;10.90;99.90;;;;;;4928428;29;20426;-74
2023/03/19 05:37:29;;;;;;;3.03;1.43;;;10.90;99.90;;;;;;4928423;29;20411;-73
2023/03/19 05:40:15;;;;;;;2.17;1.90;;;10.90;99.90;;;;;;4929088;29;20427;-72
2023/03/19 05:42:43;;;;;;;2.10;1.17;;;10.90;99.90;;;;;;4930404;29;20578;-73
2023/03/19 05:45:10;;;;;;;3.60;1.40;;;11.00;99.90;;;;;;4923628;29;20463;-73
2023/03/19 05:47:47;;;;;;;2.93;1.33;;;11.00;99.90;;;;;;4931055;29;20414;-75
2023/03/19 05:50:13;;;;;;;2.70;1.40;;;10.90;99.90;;;;;;4931426;29;20514;-72
2023/03/19 05:52:46;;;;;;;4.67;1.50;;;10.90;99.90;;;;;;4927060;29;20415;-73
2023/03/19 05:55:12;;;;;;;1.87;1.40;;;11.00;99.90;;;;;;4926824;29;20482;-73
2023/03/19 05:57:44;;;;;;;6.10;1.60;;;11.00;99.90;;;;;;4926371;29;20203;-73
2023/03/19 06:00:19;;;;;;;2.67;1.83;;;11.00;99.90;;;;;;4910133;29;20466;-74
2023/03/19 06:02:47;;;;;;;2.37;1.30;;;11.10;99.90;;;;;;4927684;29;20422;-73
2023/03/19 06:05:25;;;;;;;3.60;1.10;;;11.10;99.90;;;;;;4914944;29;20480;-74
2023/03/19 06:07:54;;;;;;;2.57;1.50;;;11.10;99.90;;;;;;4913893;29;20455;-72
2023/03/19 06:10:58;;;;;;;1.60;1.30;;;11.10;99.90;;;;;;4908067;29;20473;-74
2023/03/19 06:13:25;;;;;;;1.63;1.37;;;11.20;99.90;;;;;;4909869;29;20415;-74
2023/03/19 06:15:57;;;;;;;1.50;1.13;;;11.20;99.90;;;;;;4893566;29;20431;-73
2023/03/19 06:18:29;;;;;;;1.30;0.80;;;11.30;99.90;;;;;;4892383;29;20718;-75
2023/03/19 06:20:55;;;;;;;1.50;1.13;;;11.30;99.90;;;;;;4891860;29;20465;-74
2023/03/19 06:23:20;;;;;;;1.17;0.80;;;11.40;99.90;;;;;;4906741;29;20536;-74
2023/03/19 06:25:47;;;;;;;2.30;1.07;;;11.40;99.90;;;;;;4892634;29;20211;-72
2023/03/19 06:28:13;;;;;;;3.60;1.30;;;11.40;99.90;;;;;;4909756;29;20408;-73
2023/03/19 06:30:42;;;;;;;3.53;1.37;;;11.50;99.90;;;;;;4907539;29;20510;-74
2023/03/19 06:33:30;;;;;;;1.47;1.00;;;11.50;99.90;;;;;;4908393;29;20463;-72
2023/03/19 06:35:58;;;;;;;2.50;1.20;;;11.50;99.90;;;;;;4910219;29;20435;-72
2023/03/19 06:38:24;;;;;;;1.73;1.00;;;11.50;99.90;;;;;;4908967;29;20925;-74
2023/03/19 06:40:50;;;;;;;1.83;1.43;;;11.50;99.90;;;;;;4910528;29;20507;-74
2023/03/19 06:43:16;;;;;;;2.97;1.20;;;11.50;99.90;;;;;;4911023;29;20436;-72
2023/03/19 06:45:42;;;;;;;1.60;1.07;;;11.60;99.90;;;;;;4894726;29;20219;-74
2023/03/19 06:48:07;;;;;;;1.50;1.00;;;11.60;99.90;;;;;;4893764;29;20439;-73
2023/03/19 06:50:33;;;;;;;1.47;0.93;;;11.60;99.90;;;;;;4909722;29;20293;-73
2023/03/19 06:52:59;;;;;;;4.07;1.80;;;11.60;99.90;;;;;;4910884;29;20332;-73
2023/03/19 06:55:26;;;;;;;1.50;1.00;;;11.60;99.90;;;;;;4911031;29;20171;-73
2023/03/19 06:57:52;;;;;;;2.10;1.33;;;11.60;99.90;;;;;;4909930;29;20446;-74
2023/03/19 07:00:18;;;;;;;3.00;1.70;;;11.60;99.90;;;;;;4894391;29;20227;-74
2023/03/19 07:02:45;;;;;;;4.60;1.20;;;11.60;99.90;;;;;;4898170;29;20197;-74
2023/03/19 07:05:11;;;;;;;1.10;1.00;;;11.60;99.90;;;;;;4929437;29;20743;-74
2023/03/19 07:07:36;;;;;;;2.37;1.37;;;11.60;99.90;;;;;;4876566;29;20511;-74
2023/03/19 07:10:02;;;;;;;1.20;0.90;;;11.60;99.90;;;;;;4899391;29;20468;-73
2023/03/19 07:12:28;;;;;;;3.67;1.70;;;11.60;99.90;;;;;;4911062;29;20188;-74
2023/03/19 07:14:57;;;;;;;1.60;1.27;;;11.60;99.90;;;;;;4912669;29;20440;-73
2023/03/19 07:17:24;;;;;;;2.77;1.10;;;11.60;99.90;;;;;;4908051;29;20244;-72
2023/03/19 07:19:50;;;;;;;1.90;0.93;;;11.60;99.90;;;;;;4907319;29;20903;-73
2023/03/19 07:22:16;;;;;;;3.00;1.70;;;11.60;99.90;;;;;;4923887;29;20878;-72
2023/03/19 07:24:42;;;;;;;1.50;1.00;;;11.60;99.90;;;;;;4927828;29;20454;-73
2023/03/19 07:27:08;;;;;;;1.70;1.10;;;11.60;99.90;;;;;;4927802;29;20417;-73
2023/03/19 07:29:35;;;;;;;2.50;1.20;;;11.70;99.90;;;;;;4925326;29;20953;-74
2023/03/19 07:32:00;;;;;;;1.20;0.83;;;11.70;99.90;;;;;;4909860;29;20182;-72
2023/03/19 07:34:26;;;;;;;1.93;1.17;;;11.70;99.90;;;;;;4927672;29;20415;-73
2023/03/19 07:36:52;;;;;;;1.70;1.00;;;11.80;99.90;;;;;;4928783;29;20187;-73
2023/03/19 07:39:18;;;;;;;3.90;1.80;;;11.90;99.90;;;;;;4942684;29;20185;-74
2023/03/19 07:41:46;;;;;;;1.50;1.37;;;12.00;99.60;;;;;;4926307;29;20190;-73
2023/03/19 07:44:14;;;;;;;1.53;1.23;;;12.10;99.30;;;;;;4926289;29;20749;-73
2023/03/19 07:46:40;;;;;;;2.80;1.30;;;12.20;99.20;;;;;;4928035;29;21009;-73
2023/03/19 07:49:06;;;;;;;2.10;1.00;;;12.20;99.00;;;;;;4929080;29;20418;-74
2023/03/19 07:51:32;;;;;;;2.07;1.10;;;12.30;98.70;;;;;;4915183;29;20192;-72
2023/03/19 07:53:58;;;;;;;1.77;1.47;;;12.50;98.50;;;;;;4929683;29;20172;-73
2023/03/19 07:56:25;;;;;;;1.10;0.90;;;12.60;98.00;;;;;;4930662;29;20520;-73
2023/03/19 07:58:51;;;;;;;2.40;1.70;;;12.60;97.60;;;;;;4930332;29;20224;-73
2023/03/19 08:01:17;;;;;;;1.20;0.90;;;12.60;97.40;;;;;;4928647;29;21041;-74
2023/03/19 08:03:43;;;;;;;1.50;1.00;;;12.50;97.60;;;;;;4928550;29;20416;-74
2023/03/19 08:06:12;;;;;;;1.53;1.10;;;12.40;97.70;;;;;;4929465;29;20498;-74
2023/03/19 08:08:38;;;;;;;1.60;0.90;;;12.30;97.90;;;;;;4926933;29;20278;-73
2023/03/19 08:11:03;;;;;;;1.53;1.03;;;12.40;98.20;;;;;;4928666;29;20491;-73
2023/03/19 08:13:30;;;;;;;2.40;0.90;;;12.50;98.30;;;;;;4930418;29;20257;-77
2023/03/19 08:15:57;;;;;;;1.27;0.83;;;12.60;98.00;;;;;;4910813;29;20182;-74
2023/03/19 08:18:23;;;;;;;1.60;1.10;;;12.80;97.60;;;;;;4928476;29;20405;-73
2023/03/19 08:20:49;;;;;;;2.70;1.47;;;13.00;97.00;;;;;;4913914;29;20669;-72
2023/03/19 08:23:15;;;;;;;1.70;1.00;;;13.10;96.60;;;;;;4926857;29;20191;-74
2023/03/19 08:25:40;;;;;;;1.70;1.13;;;13.30;96.40;;;;;;4910834;29;20269;-74
2023/03/19 08:28:08;;;;;;;1.67;1.37;;;13.50;94.90;;;;;;4924188;29;20830;-75
2023/03/19 08:30:35;;;;;;;2.27;1.50;;;13.70;94.30;;;;;;4907467;29;20298;-75
2023/03/19 08:33:01;;;;;;;1.20;1.07;;;13.90;93.30;;;;;;4909435;29;20408;-73
2023/03/19 08:35:27;;;;;;;2.37;1.47;;;14.10;93.20;;;;;;4911917;29;20446;-73
2023/03/19 08:37:54;;;;;;;1.60;1.10;;;14.20;92.40;;;;;;4942012;29;20430;-74
2023/03/19 08:40:20;;;;;;;1.50;1.20;;;14.30;91.80;;;;;;4928080;29;20571;-76
2023/03/19 08:42:46;;;;;;;4.87;1.43;;;14.40;91.60;;;;;;4917431;29;20418;-74
2023/03/19 08:45:14;;;;;;;1.73;1.30;;;14.60;90.70;;;;;;4933335;29;20451;-77
2023/03/19 08:47:42;;;;;;;2.13;1.60;;;14.70;90.70;;;;;;4932711;29;20574;-73
2023/03/19 08:50:09;;;;;;;1.57;1.37;;;14.70;90.10;;;;;;4913207;29;20482;-73
2023/03/19 08:52:38;;;;;;;2.70;1.90;;;14.90;89.80;;;;;;4897922;29;20423;-73
2023/03/19 08:55:04;;;;;;;2.50;1.80;;;14.80;88.00;;;;;;4896147;29;20432;-73
2023/03/19 08:57:31;;;;;;;2.97;1.70;;;14.90;87.80;;;;;;4914876;29;20415;-73
2023/03/19 08:59:56;;;;;;;5.70;2.73;;;15.00;88.50;;;;;;4915263;29;20455;-74
2023/03/19 09:02:22;;;;;;;3.70;2.20;;;15.10;86.30;;;;;;4897192;29;20439;-74
2023/03/19 09:04:48;;;;;;;3.00;2.33;;;15.20;86.10;;;;;;4902853;29;20228;-74
2023/03/19 09:07:15;;;;;;;2.77;2.20;;;15.30;84.30;;;;;;4919262;29;20410;-74
2023/03/19 09:09:42;;;;;;;2.90;2.33;;;15.30;85.80;;;;;;4947037;29;20249;-75
2023/03/19 09:12:10;;;;;;;3.23;2.30;;;15.30;86.40;;;;;;4933248;29;20411;-73
2023/03/19 09:14:36;;;;;;;2.73;1.90;;;15.20;85.80;;;;;;4949121;29;20518;-75
2023/03/19 09:17:03;;;;;;;3.73;1.70;;;15.10;86.90;;;;;;4933359;29;20858;-74
2023/03/19 09:19:29;;;;;;;5.10;2.97;;;15.20;87.60;;;;;;4934359;29;20458;-73
2023/03/19 09:21:55;;;;;;;5.30;2.40;;;15.10;87.40;;;;;;4949994;29;20423;-73
2023/03/19 09:24:21;;;;;;;3.30;2.50;;;15.20;87.60;;;;;;4931676;29;20194;-74
2023/03/19 09:26:48;;;;;;;2.90;1.80;;;15.40;87.10;;;;;;4932211;29;20458;-73
2023/03/19 09:29:14;;;;;;;2.40;1.73;;;15.40;85.60;;;;;;4915126;29;20443;-74
2023/03/19 09:31:40;;;;;;;2.70;2.27;;;15.50;85.00;;;;;;4915931;29;20698;-74
2023/03/19 09:34:08;;;;;;;3.20;2.90;;;15.40;85.10;;;;;;4916063;29;20521;-75
2023/03/19 09:36:35;;;;;;;3.20;2.47;;;15.30;83.10;;;;;;4931797;29;20425;-74
2023/03/19 09:39:05;;;;;;;3.07;2.03;;;15.30;85.20;;;;;;4932049;29;20483;-76
2023/03/19 09:41:35;;;;;;;2.77;2.30;;;15.30;85.20;;;;;;4916387;29;20877;-74
2023/03/19 09:44:03;;;;;;;4.93;1.90;;;15.30;85.60;;;;;;4933674;29;20414;-75
2023/03/19 09:46:42;;;;;;;4.30;3.00;;;15.40;86.30;;;;;;4914858;29;20994;-76
2023/03/19 09:49:19;;;;;;;2.40;2.20;;;15.50;83.40;;;;;;4899207;29;20431;-75
2023/03/19 09:52:09;;;;;;;3.10;2.50;;;15.70;83.80;;;;;;4929316;29;20439;-74
2023/03/19 09:54:43;;;;;;;2.10;1.80;;;15.90;81.00;;;;;;4931627;29;20454;-74
2023/03/19 09:57:10;;;;;;;2.50;2.17;;;16.00;80.20;;;;;;4931612;29;20412;-74
2023/03/19 09:59:35;;;;;;;3.30;1.93;;;15.90;80.30;;;;;;4915129;29;20442;-74
2023/03/19 10:02:21;;;;;;;4.73;3.60;;;15.90;81.00;;;;;;4946122;29;20424;-73
2023/03/19 10:04:59;;;;;;;2.13;1.90;;;16.00;79.50;;;;;;4926171;29;20198;-75
2023/03/19 10:07:40;;;;;;;2.60;2.10;;;16.00;79.20;;;;;;4913964;29;20487;-74
2023/03/19 10:10:26;;;;;;;2.20;1.93;;;16.10;79.20;;;;;;4914894;29;20466;-75
2023/03/19 10:13:38;;;;;;;2.33;2.13;;;16.30;78.20;;;;;;4915545;29;20426;-73
2023/03/19 10:16:09;;;;;;;3.00;2.10;;;16.60;74.70;;;;;;4914946;29;20438;-76
2023/03/19 10:18:38;;;;;;;2.73;1.70;;;16.70;73.60;;;;;;4897494;29;20438;-73
2023/03/19 10:21:15;;;;;;;1.80;1.60;;;16.60;73.20;;;;;;4930983;29;20439;-74
2023/03/19 10:23:56;;;;;;;1.97;1.30;;;16.70;71.00;;;;;;4930945;29;20419;-74
2023/03/19 10:26:29;;;;;;;5.33;3.00;;;16.50;72.40;;;;;;4933122;29;21000;-77
2023/03/19 10:29:14;;;;;;;2.13;1.83;;;16.40;71.20;;;;;;4933228;29;20423;-75
2023/03/19 10:31:51;;;;;;;2.73;2.20;;;16.40;72.30;;;;;;4918629;29;20425;-75
2023/03/19 10:34:36;;;;;;;2.90;1.80;;;16.40;73.10;;;;;;4932058;29;20426;-75
2023/03/19 10:37:22;;;;;;;3.07;2.00;;;16.40;72.30;;;;;;4933058;29;20411;-75
2023/03/19 10:39:49;;;;;;;4.23;2.13;;;16.40;71.30;;;;;;4936032;29;20463;-76
2023/03/19 10:42:20;;;;;;;2.50;1.97;;;16.20;73.90;;;;;;4920265;29;20420;-77
2023/03/19 10:45:29;;;;;;;2.33;2.13;;;16.20;74.60;;;;;;4937905;29;20409;-75
2023/03/19 10:47:56;;;;;;;2.80;2.00;;;16.10;74.80;;;;;;4916668;29;20439;-75
2023/03/19 10:50:28;;;;;;;2.37;1.83;;;16.20;74.90;;;;;;4914718;29;20502;-74
2023/03/19 10:53:27;;;;;;;2.10;1.63;;;16.20;72.80;;;;;;4912896;29;20822;-75
2023/03/19 10:56:16;;;;;;;4.83;1.97;;;16.30;73.50;;;;;;4914532;29;20531;-75
2023/03/19 10:59:06;;;;;;;1.87;1.77;;;16.20;72.50;;;;;;4930337;29;20426;-75
2023/03/19 11:01:38;;;;;;;1.90;1.50;;;16.20;72.80;;;;;;4914077;29;20464;-75
2023/03/19 11:04:33;;;;;;;5.03;2.37;;;16.10;73.70;;;;;;4899933;29;20493;-74
2023/03/19 11:07:10;;;;;;;2.27;2.07;;;16.00;74.70;;;;;;4891917;29;20483;-74
2023/03/19 11:09:41;;;;;;;3.40;2.47;;;16.10;74.40;;;;;;4898295;29;20461;-73
2023/03/19 11:12:18;;;;;;;1.90;1.70;;;16.00;75.00;;;;;;4898465;29;20435;-74
2023/03/19 11:14:47;;;;;;;2.90;1.70;;;16.40;73.20;;;;;;4913473;29;20769;-73
2023/03/19 11:17:26;;;;;;;2.77;1.90;;;16.60;73.30;;;;;;4929285;29;20450;-74
2023/03/19 11:19:57;;;;;;;2.73;1.87;;;16.80;71.80;;;;;;4933635;29;20447;-76
2023/03/19 11:22:32;;;;;;;4.80;2.30;;;16.70;69.60;;;;;;4932424;29;20420;-74
2023/03/19 11:25:19;;;;;;;3.73;2.07;;;16.80;69.90;;;;;;4934227;29;20436;-75
2023/03/19 11:28:00;;;;;;;3.77;2.47;;;16.80;69.80;;;;;;4933012;29;20422;-76
2023/03/19 11:30:33;;;;;;;4.60;2.00;;;16.70;71.30;;;;;;4919185;29;20444;-75
2023/03/19 11:33:27;;;;;;;3.97;2.47;;;16.90;69.60;;;;;;4917234;29;20447;-74
2023/03/19 11:36:16;;;;;;;3.30;2.67;;;16.90;70.00;;;;;;4930724;29;20434;-73
2023/03/19 11:39:23;;;;;;;2.90;2.00;;;16.90;71.20;;;;;;4915422;29;20439;-74
2023/03/19 11:41:59;;;;;;;2.30;2.10;;;17.20;69.90;;;;;;4929950;29;20407;-76
2023/03/19 11:44:41;;;;;;;4.33;2.90;;;17.30;70.40;;;;;;4918925;29;20446;-74
2023/03/19 11:47:39;;;;;;;4.37;2.83;;;17.50;68.50;;;;;;4933044;29;20494;-76
2023/03/19 11:50:23;;;;;;;3.00;2.50;;;17.60;66.30;;;;;;4932095;29;20449;-74
2023/03/19 11:52:55;;;;;;;3.43;2.70;;;17.70;66.20;;;;;;4986664;23;20490;-75
2023/03/19 11:56:06;;;;;;;2.67;2.17;;;17.50;66.50;;;;;;4933717;29;20820;-75
2023/03/19 11:58:50;;;;;;;3.13;2.47;;;17.30;67.70;;;;;;4930682;29;20484;-74
2023/03/19 12:01:37;;;;;;;3.27;2.40;;;17.20;70.20;;;;;;4912418;29;20453;-74
2023/03/19 12:04:41;;;;;;;4.20;2.87;;;17.10;71.10;;;;;;4896472;29;20409;-75
2023/03/19 12:07:17;;;;;;;2.40;2.20;;;17.10;72.30;;;;;;4913947;29;20480;-75
2023/03/19 12:10:05;;;;;;;3.80;2.90;;;17.30;71.00;;;;;;4900861;29;20563;-77
2023/03/19 12:13:16;;;;;;;3.97;2.83;;;17.30;70.50;;;;;;4931681;29;20413;-78
2023/03/19 12:16:07;;;;;;;3.10;2.60;;;17.20;72.40;;;;;;4895796;29;20454;-75
2023/03/19 12:18:47;;;;;;;3.10;2.10;;;17.20;73.70;;;;;;4915927;29;20453;-76
2023/03/19 12:21:40;;;;;;;2.23;1.93;;;17.30;72.40;;;;;;4884000;29;20461;-75
2023/03/19 12:24:24;;;;;;;2.37;1.70;;;17.20;71.80;;;;;;4908434;29;20428;-76
2023/03/19 12:26:56;;;;;;;3.33;2.40;;;17.30;72.30;;;;;;4894024;29;20482;-75
2023/03/19 12:29:45;;;;;;;3.37;2.80;;;17.50;69.20;;;;;;4900683;29;20455;-76
2023/03/19 12:32:25;;;;;;;3.27;2.13;;;17.10;71.20;;;;;;4930328;29;20472;-75
2023/03/19 12:35:01;;;;;;;2.83;2.07;;;17.00;72.70;;;;;;4903011;29;20521;-75
2023/03/19 12:37:42;;;;;;;2.83;2.53;;;17.00;73.00;;;;;;4935683;29;20403;-75
2023/03/19 12:40:33;;;;;;;4.63;2.20;;;16.90;74.30;;;;;;4918943;29;20447;-75
2023/03/19 12:43:06;;;;;;;3.03;2.10;;;16.90;74.00;;;;;;4919763;29;20408;-77
2023/03/19 12:45:43;;;;;;;2.40;2.20;;;17.00;72.20;;;;;;4901076;29;20457;-77
2023/03/19 12:48:21;;;;;;;2.80;2.03;;;17.00;72.50;;;;;;4919177;29;20451;-76
2023/03/19 12:50:51;;;;;;;1.93;1.70;;;17.10;71.50;;;;;;4917937;29;20512;-75
2023/03/19 12:53:43;;;;;;;3.13;2.00;;;17.20;72.80;;;;;;4912682;29;20435;-75
2023/03/19 12:56:20;;;;;;;3.60;2.20;;;17.30;70.10;;;;;;4917298;29;20419;-77
2023/03/19 12:58:59;;;;;;;2.83;2.10;;;17.30;70.60;;;;;;4917232;29;20454;-77
2023/03/19 13:01:33;;;;;;;2.80;1.80;;;17.40;69.00;;;;;;4936910;29;20435;-76
2023/03/19 13:04:45;;;;;;;1.77;1.67;;;17.10;68.10;;;;;;4952357;29;20882;-76
2023/03/19 13:07:22;;;;;;;2.10;1.70;;;16.80;70.20;;;;;;4918803;29;20466;-76
2023/03/19 13:09:55;;;;;;;2.20;1.73;;;16.50;73.50;;;;;;4935586;29;20448;-74
2023/03/19 13:12:45;;;;;;;2.80;2.30;;;16.50;74.30;;;;;;4938812;29;20415;-78